Terminal Aerodrome Forecast
Issued by NWS Shreveport, LA

Home | Current Version | Previous Version | Text Only | Print | Product List | Glossary On
Versions: 1 2 3 4 5 6 7 8 9 10 11 12 13 14 15 16 17
000
FTUS44 KSHV 021140
TAFTYR
TAF
KTYR 021140Z 0212/0312 00000KT P6SM SKC
      TEMPO 0212/0214 5SM BR
     FM021400 15005KT P6SM SKC
     FM021800 19005KT P6SM SCT250
     FM030000 13004KT P6SM SKC=

USA.gov is the U.S. government's official web portal to all federal, state and local government web resources and services.